createdAt,value
2022-10-03T00:00:38.086Z,12.28
2022-10-03T00:03:48.170Z,12.26
2022-10-03T00:06:39.939Z,12.24
2022-10-03T00:09:33.441Z,12.29
2022-10-03T00:12:43.198Z,12.25
2022-10-03T00:16:06.906Z,12.16
2022-10-03T00:18:46.709Z,12.16
2022-10-03T00:21:42.220Z,12.22
2022-10-03T00:24:52.712Z,12.22
2022-10-03T00:27:45.635Z,12.10
2022-10-03T00:30:31.017Z,12.17
2022-10-03T00:33:17.977Z,12.13
2022-10-03T00:36:18.156Z,12.16
2022-10-03T00:39:25.518Z,12.12
2022-10-03T00:42:15.986Z,12.08
2022-10-03T00:45:07.082Z,12.04
2022-10-03T00:48:10.468Z,12.10
2022-10-03T00:50:59.260Z,11.98
2022-10-03T00:54:21.604Z,11.98
2022-10-03T00:57:06.578Z,12.00
2022-10-03T01:00:12.827Z,11.93
2022-10-03T01:02:54.967Z,11.93
2022-10-03T01:05:39.271Z,11.82
2022-10-03T01:08:36.187Z,11.94
2022-10-03T01:11:43.636Z,11.92
2022-10-03T01:14:46.442Z,12.01
2022-10-03T01:17:55.110Z,12.01
2022-10-03T01:20:36.804Z,11.95
2022-10-03T01:23:54.508Z,11.97
2022-10-03T01:27:05.429Z,11.88
2022-10-03T01:30:10.751Z,11.93
2022-10-03T01:33:19.504Z,11.92
2022-10-03T01:36:04.195Z,11.94
2022-10-03T01:39:18.414Z,11.95
2022-10-03T01:45:27.708Z,11.86
2022-10-03T01:48:11.696Z,11.77
2022-10-03T01:51:19.624Z,11.78
2022-10-03T01:54:19.218Z,11.75
2022-10-03T01:56:59.911Z,11.71
2022-10-03T01:59:47.978Z,11.72
2022-10-03T02:02:47.498Z,11.75
2022-10-03T02:05:47.610Z,11.69
2022-10-03T02:08:41.464Z,11.68
2022-10-03T02:11:25.661Z,11.60
2022-10-03T02:14:15.821Z,11.58
2022-10-03T02:16:58.736Z,11.57
2022-10-03T02:19:53.068Z,11.66
2022-10-03T02:22:44.267Z,11.51
2022-10-03T02:25:24.876Z,11.51
2022-10-03T02:28:30.980Z,11.46
2022-10-03T02:31:23.213Z,11.37
2022-10-03T02:34:26.079Z,11.31
2022-10-03T02:36:57.919Z,11.32
2022-10-03T02:39:45.944Z,11.21
2022-10-03T02:42:51.797Z,11.15
2022-10-03T02:46:06.983Z,11.22
2022-10-03T02:48:57.528Z,11.11
2022-10-03T02:51:45.613Z,11.16
2022-10-03T02:54:41.803Z,11.24
2022-10-03T02:57:53.388Z,11.22
2022-10-03T03:00:43.054Z,11.16
2022-10-03T03:03:38.237Z,11.25
2022-10-03T03:06:28.404Z,11.24
2022-10-03T03:09:25.865Z,11.17
2022-10-03T03:12:41.025Z,11.13
2022-10-03T03:15:53.500Z,11.19
2022-10-03T03:18:50.869Z,11.17
2022-10-03T03:21:56.383Z,11.11
2022-10-03T03:24:46.689Z,11.14
2022-10-03T03:27:24.614Z,11.19
2022-10-03T03:30:14.606Z,11.16
2022-10-03T03:33:06.655Z,11.06
2022-10-03T03:35:41.254Z,11.08
2022-10-03T03:38:32.501Z,11.11
2022-10-03T03:41:28.889Z,11.10
2022-10-03T03:44:17.012Z,11.01
2022-10-03T03:47:33.660Z,11.11
2022-10-03T03:50:30.067Z,11.03
2022-10-03T03:53:37.281Z,11.06
2022-10-03T03:56:36.209Z,11.02
2022-10-03T03:59:55.760Z,11.02
2022-10-03T04:02:48.454Z,11.11
2022-10-03T04:05:55.219Z,11.02
2022-10-03T04:09:02.013Z,11.12
2022-10-03T04:12:10.619Z,11.15
2022-10-03T04:15:22.638Z,11.26
2022-10-03T04:19:01.918Z,11.26
2022-10-03T04:22:06.373Z,11.34
2022-10-03T04:25:19.537Z,11.42
2022-10-03T04:28:28.946Z,11.36
2022-10-03T04:31:43.550Z,11.37
2022-10-03T04:38:08.705Z,11.38
2022-10-03T04:41:05.331Z,11.39
2022-10-03T04:47:45.746Z,11.45
2022-10-03T04:51:07.977Z,11.51
2022-10-03T04:57:30.796Z,11.54
2022-10-03T05:00:20.495Z,11.50
2022-10-03T05:03:27.653Z,11.47
2022-10-03T05:06:00.563Z,11.53
2022-10-03T05:09:01.239Z,11.58
2022-10-03T05:12:16.949Z,11.60
2022-10-03T05:15:30.813Z,11.78
2022-10-03T05:18:47.930Z,11.87
2022-10-03T05:21:36.912Z,11.89
2022-10-03T05:24:31.595Z,11.87
2022-10-03T05:27:28.140Z,11.81
2022-10-03T05:30:14.977Z,11.94
2022-10-03T05:33:42.144Z,12.08
2022-10-03T05:36:46.583Z,12.20
2022-10-03T05:39:26.607Z,12.31
2022-10-03T05:45:53.144Z,12.60
2022-10-03T05:48:59.320Z,12.52
2022-10-03T05:52:13.361Z,12.64
2022-10-03T05:54:51.298Z,12.78
2022-10-03T06:08:19.553Z,12.80
2022-10-03T06:11:42.366Z,12.57
2022-10-03T06:14:29.204Z,12.60
2022-10-03T06:17:39.772Z,12.69
2022-10-03T06:20:48.587Z,12.52
2022-10-03T06:23:56.412Z,12.83
2022-10-03T06:27:05.822Z,12.81
2022-10-03T06:30:12.080Z,12.84
2022-10-03T06:33:17.671Z,13.07
2022-10-03T06:36:26.648Z,13.06
2022-10-03T06:39:32.500Z,13.13
2022-10-03T06:42:49.820Z,13.33
2022-10-03T06:45:38.455Z,13.50
2022-10-03T06:48:46.504Z,13.45
2022-10-03T06:51:35.921Z,13.50
2022-10-03T06:54:41.217Z,13.64
2022-10-03T06:57:48.806Z,13.64
2022-10-03T07:00:45.855Z,13.66
2022-10-03T07:03:52.674Z,13.91
2022-10-03T07:06:30.998Z,14.06
2022-10-03T07:09:37.307Z,13.98
2022-10-03T07:12:39.655Z,13.80
2022-10-03T07:16:08.875Z,14.17
2022-10-03T07:19:01.606Z,14.21
2022-10-03T07:22:22.983Z,14.33
2022-10-03T07:25:26.219Z,14.51
2022-10-03T07:28:24.569Z,14.53
2022-10-03T07:31:31.346Z,14.61
2022-10-03T07:34:36.144Z,14.81
2022-10-03T07:38:01.363Z,14.95
2022-10-03T07:40:47.431Z,15.14
2022-10-03T07:43:59.259Z,15.00
2022-10-03T07:47:17.649Z,15.18
2022-10-03T07:50:19.202Z,15.41
2022-10-03T07:53:10.559Z,15.31
2022-10-03T07:56:42.872Z,15.44
2022-10-03T07:59:37.583Z,15.65
2022-10-03T08:02:38.334Z,15.74
2022-10-03T08:05:44.202Z,15.78
2022-10-03T08:08:54.442Z,15.76
2022-10-03T08:11:58.177Z,15.74
2022-10-03T08:15:08.266Z,15.77
2022-10-03T08:17:56.531Z,15.80
2022-10-03T08:21:02.432Z,15.83
2022-10-03T08:24:10.090Z,16.04
2022-10-03T08:26:58.134Z,16.30
2022-10-03T08:29:46.578Z,16.04
2022-10-03T08:32:49.283Z,15.78
2022-10-03T08:35:38.696Z,16.11
2022-10-03T08:38:52.698Z,16.45
2022-10-03T08:42:03.878Z,16.45
2022-10-03T08:45:14.053Z,16.00
2022-10-03T08:48:25.598Z,15.72
2022-10-03T08:51:37.254Z,15.95
2022-10-03T08:54:56.074Z,16.37
2022-10-03T08:57:57.857Z,16.68
2022-10-03T09:00:56.140Z,16.78
2022-10-03T09:03:57.961Z,16.40
2022-10-03T09:10:03.670Z,16.70
2022-10-03T09:13:17.787Z,17.10
2022-10-03T09:16:34.611Z,16.90
2022-10-03T09:19:49.901Z,16.31
2022-10-03T09:22:23.902Z,16.42
2022-10-03T09:25:20.611Z,16.53
2022-10-03T09:27:54.676Z,16.82
2022-10-03T09:31:05.234Z,17.05
2022-10-03T09:33:49.423Z,17.09
2022-10-03T09:37:16.384Z,17.00
2022-10-03T09:40:03.159Z,17.12
2022-10-03T09:43:03.633Z,17.07
2022-10-03T09:46:13.118Z,17.11
2022-10-03T09:49:19.985Z,17.45
2022-10-03T09:52:32.712Z,17.34
2022-10-03T09:55:15.957Z,17.55
2022-10-03T09:58:38.943Z,17.27
2022-10-03T10:01:36.391Z,17.39
2022-10-03T10:04:43.357Z,17.58
2022-10-03T10:07:49.352Z,17.26
2022-10-03T10:10:58.533Z,17.35
2022-10-03T10:14:06.853Z,17.58
2022-10-03T10:17:08.521Z,17.70
2022-10-03T10:20:17.549Z,17.92
2022-10-03T10:23:23.535Z,17.48
2022-10-03T10:26:29.592Z,17.36
2022-10-03T10:29:30.156Z,17.42
2022-10-03T10:32:36.871Z,17.28
2022-10-03T10:36:07.508Z,17.66
2022-10-03T10:39:10.914Z,17.72
2022-10-03T10:42:35.035Z,17.73
2022-10-03T10:45:42.648Z,17.71
2022-10-03T10:48:49.438Z,17.96
2022-10-03T10:51:48.159Z,18.04
2022-10-03T10:54:53.046Z,17.93
2022-10-03T10:58:04.378Z,17.88
2022-10-03T11:00:59.544Z,17.81
2022-10-03T11:04:18.109Z,17.71
2022-10-03T11:07:14.220Z,17.33
2022-10-03T11:10:26.963Z,17.26
2022-10-03T11:13:36.340Z,17.36
2022-10-03T11:16:29.991Z,17.62
2022-10-03T11:19:35.704Z,17.52
2022-10-03T11:22:40.548Z,17.76
2022-10-03T11:25:49.039Z,17.78
2022-10-03T11:28:57.463Z,17.26
2022-10-03T11:31:45.323Z,17.11
2022-10-03T11:34:53.688Z,17.26
2022-10-03T11:37:50.032Z,17.53
2022-10-03T11:40:59.165Z,17.76
2022-10-03T11:43:51.709Z,18.02
2022-10-03T11:46:53.239Z,17.79
2022-10-03T11:49:21.760Z,17.97
2022-10-03T11:52:10.578Z,17.80
2022-10-03T11:54:51.043Z,17.73
2022-10-03T11:57:40.315Z,17.65
2022-10-03T12:00:23.958Z,17.93
2022-10-03T12:03:22.032Z,17.85
2022-10-03T12:06:21.387Z,18.02
2022-10-03T12:09:20.567Z,18.72
2022-10-03T12:12:07.532Z,19.15
2022-10-03T12:14:47.728Z,19.38
2022-10-03T12:17:37.350Z,19.22
2022-10-03T12:20:28.930Z,19.56
2022-10-03T12:23:41.556Z,20.13
2022-10-03T12:26:21.418Z,20.36
2022-10-03T12:28:55.518Z,20.53
2022-10-03T12:31:42.955Z,20.86
2022-10-03T12:34:41.172Z,20.69
2022-10-03T12:37:42.934Z,20.35
2022-10-03T12:40:20.644Z,20.14
2022-10-03T12:43:24.643Z,20.75
2022-10-03T12:46:32.083Z,20.56
2022-10-03T12:49:14.345Z,21.05
2022-10-03T12:51:58.385Z,19.80
2022-10-03T12:54:53.863Z,20.32
2022-10-03T12:57:52.802Z,20.79
2022-10-03T13:01:00.227Z,21.34
2022-10-03T13:04:26.108Z,22.16
2022-10-03T13:07:28.680Z,22.84
2022-10-03T13:10:21.913Z,21.37
2022-10-03T13:12:59.183Z,20.94
2022-10-03T13:16:04.626Z,21.42
2022-10-03T13:18:53.054Z,21.45
2022-10-03T13:21:48.709Z,22.25
2022-10-03T13:24:47.784Z,21.83
2022-10-03T13:27:34.432Z,21.10
2022-10-03T13:30:26.171Z,20.94
2022-10-03T13:33:01.750Z,20.13
2022-10-03T13:36:21.903Z,19.40
2022-10-03T13:39:14.116Z,20.13
2022-10-03T13:42:03.811Z,20.46
2022-10-03T13:44:55.786Z,21.24
2022-10-03T13:47:56.890Z,21.66
2022-10-03T13:50:36.327Z,21.90
2022-10-03T13:53:35.758Z,21.89
2022-10-03T13:56:32.744Z,22.46
2022-10-03T13:59:43.017Z,22.35
2022-10-03T14:03:05.894Z,22.44
2022-10-03T14:06:02.766Z,21.95
2022-10-03T14:09:16.643Z,21.79
2022-10-03T14:12:09.475Z,21.28
2022-10-03T14:15:15.530Z,20.95
2022-10-03T14:18:10.760Z,20.42
2022-10-03T14:21:21.853Z,19.82
2022-10-03T14:24:11.462Z,19.52
2022-10-03T14:26:53.729Z,19.21
2022-10-03T14:29:59.689Z,19.26
2022-10-03T14:35:51.821Z,18.87
2022-10-03T14:39:02.773Z,18.78
2022-10-03T14:42:06.188Z,18.59
2022-10-03T14:44:46.084Z,18.51
2022-10-03T14:47:22.391Z,18.45
2022-10-03T14:50:10.529Z,18.28
2022-10-03T14:53:08.125Z,18.21
2022-10-03T14:56:12.205Z,18.11
2022-10-03T14:58:55.266Z,17.95
2022-10-03T15:01:31.982Z,17.90
2022-10-03T15:04:36.213Z,17.73
2022-10-03T15:07:12.612Z,17.67
2022-10-03T15:09:53.863Z,17.38
2022-10-03T15:12:38.845Z,17.43
2022-10-03T15:15:26.819Z,17.23
2022-10-03T15:18:00.920Z,17.13
2022-10-03T15:20:38.829Z,17.13
2022-10-03T15:23:18.248Z,17.06
2022-10-03T15:25:58.212Z,17.11
2022-10-03T15:29:00.971Z,16.97
2022-10-03T15:31:46.249Z,17.00
2022-10-03T15:34:22.891Z,16.80
2022-10-03T15:37:00.695Z,16.79
2022-10-03T15:39:45.573Z,16.72
2022-10-03T15:42:30.209Z,16.62
2022-10-03T15:48:37.740Z,16.44
2022-10-03T15:51:19.096Z,16.60
2022-10-03T15:53:53.666Z,16.41
2022-10-03T15:56:44.900Z,16.54
2022-10-03T15:59:34.463Z,16.47
2022-10-03T16:02:30.460Z,16.51
2022-10-03T16:05:08.454Z,16.31
2022-10-03T16:08:11.272Z,16.24
2022-10-03T16:10:46.873Z,16.29
2022-10-03T16:14:09.157Z,16.25
2022-10-03T16:16:45.068Z,16.12
2022-10-03T16:19:41.586Z,16.00
2022-10-03T16:22:37.299Z,15.80
2022-10-03T16:25:18.484Z,15.82
2022-10-03T16:27:57.918Z,15.84
2022-10-03T16:30:45.824Z,15.66
2022-10-03T16:33:38.308Z,15.53
2022-10-03T16:36:13.814Z,15.54
2022-10-03T16:39:05.504Z,15.42
2022-10-03T16:41:49.476Z,15.26
2022-10-03T16:44:48.320Z,15.22
2022-10-03T16:47:28.948Z,15.14
2022-10-03T16:50:18.433Z,15.09
2022-10-03T16:52:55.941Z,15.09
2022-10-03T16:55:38.542Z,14.97
2022-10-03T16:58:09.712Z,14.96
2022-10-03T17:01:22.096Z,14.84
2022-10-03T17:03:55.155Z,14.74
2022-10-03T17:06:36.790Z,14.70
2022-10-03T17:09:26.063Z,14.74
2022-10-03T17:12:04.612Z,14.73
2022-10-03T17:14:44.297Z,14.71
2022-10-03T17:18:08.755Z,14.63
2022-10-03T17:20:50.726Z,14.64
2022-10-03T17:24:06.994Z,14.60
2022-10-03T17:26:53.025Z,14.64
2022-10-03T17:29:29.001Z,14.46
2022-10-03T17:32:17.424Z,14.51
2022-10-03T17:35:11.479Z,14.41
2022-10-03T17:38:44.646Z,14.42
2022-10-03T17:41:46.114Z,14.40
2022-10-03T17:44:51.782Z,14.46
2022-10-03T17:48:29.792Z,14.45
2022-10-03T17:51:30.361Z,14.52
2022-10-03T17:54:12.284Z,14.46
2022-10-03T17:56:57.974Z,14.65
2022-10-03T17:59:47.194Z,14.58
2022-10-03T18:02:28.851Z,14.58
2022-10-03T18:05:10.415Z,14.59
2022-10-03T18:07:40.705Z,14.57
2022-10-03T18:10:30.047Z,14.69
2022-10-03T18:13:02.219Z,14.61
2022-10-03T18:16:00.878Z,14.59
2022-10-03T18:18:59.503Z,14.65
2022-10-03T18:22:06.944Z,14.79
2022-10-03T18:28:29.392Z,14.62
2022-10-03T18:31:25.543Z,14.55
2022-10-03T18:34:24.991Z,14.35
2022-10-03T18:40:34.690Z,14.13
2022-10-03T18:43:27.539Z,14.05
2022-10-03T18:46:27.947Z,13.88
2022-10-03T18:49:36.208Z,13.63
2022-10-03T18:52:29.634Z,13.48
2022-10-03T18:55:40.135Z,13.34
2022-10-03T19:01:58.259Z,13.12
2022-10-03T19:04:46.643Z,13.14
2022-10-03T19:07:32.862Z,13.16
2022-10-03T19:10:16.290Z,13.11
2022-10-03T19:13:02.515Z,13.16
2022-10-03T19:16:25.451Z,13.27
2022-10-03T19:19:25.776Z,13.20
2022-10-03T19:22:09.859Z,13.26
2022-10-03T19:24:58.503Z,13.30
2022-10-03T19:27:58.914Z,13.30
2022-10-03T19:30:35.888Z,13.34
2022-10-03T19:33:25.193Z,13.40
2022-10-03T19:36:06.066Z,13.43
2022-10-03T19:38:43.298Z,13.45
2022-10-03T19:41:52.835Z,13.51
2022-10-03T19:44:33.393Z,13.56
2022-10-03T19:47:19.980Z,13.52
2022-10-03T19:50:21.306Z,13.50
2022-10-03T19:52:50.757Z,13.46
2022-10-03T19:55:26.151Z,13.46
2022-10-03T19:58:24.191Z,13.48
2022-10-03T20:01:01.677Z,13.43
2022-10-03T20:04:01.412Z,13.44
2022-10-03T20:06:47.440Z,13.44
2022-10-03T20:09:27.767Z,13.42
2022-10-03T20:44:53.044Z,13.42
2022-10-03T20:52:10.370Z,13.42
2022-10-03T21:05:24.512Z,13.50
2022-10-03T21:10:55.984Z,13.50
2022-10-03T21:13:57.275Z,13.40
2022-10-03T21:16:49.634Z,13.44
2022-10-03T21:19:50.390Z,13.46
2022-10-03T22:11:55.735Z,13.53
